Time,TemperatureF,DewpointF,PressureIn,WindDirection,WindDirectionDegrees,WindSpeedMPH,WindSpeedGustMPH,Humidity,HourlyPrecipIn,Conditions,Clouds,dailyrainin,SoftwareType,DateUTC
2013-06-29 00:07:00,71.0,69.0,29.83,ENE,65,1.0,2.0,92,0.13,,,0.00,weatherlink.com 1.10,2013-06-29 05:07:00,
2013-06-29 00:22:00,70.7,68.0,29.83,SE,145,1.0,2.0,92,0.13,,,0.00,weatherlink.com 1.10,2013-06-29 05:22:00,
2013-06-29 00:37:00,70.6,69.0,29.79,West,270,0.0,3.0,93,0.06,,,0.00,weatherlink.com 1.10,2013-06-29 05:37:00,
2013-06-29 00:52:00,70.5,68.0,29.80,West,281,0.0,2.0,93,0.01,,,0.00,weatherlink.com 1.10,2013-06-29 05:52:00,
2013-06-29 01:08:00,70.5,69.0,29.79,SW,236,1.0,2.0,94,0.00,,,0.00,weatherlink.com 1.10,2013-06-29 06:08:00,
2013-06-29 01:23:00,70.1,68.0,29.79,West,266,0.0,2.0,93,0.00,,,0.00,weatherlink.com 1.10,2013-06-29 06:23:00,
2013-06-29 01:38:00,70.2,69.0,29.79,NNW,338,1.0,1.0,94,0.00,,,0.00,weatherlink.com 1.10,2013-06-29 06:38:00,
2013-06-29 01:57:00,70.4,69.0,29.79,NNE,19,1.0,1.0,95,0.00,,,0.00,weatherlink.com 1.10,2013-06-29 06:57:00,
2013-06-29 02:08:00,70.4,69.0,29.79,NNE,18,0.0,1.0,95,0.00,,,0.00,weatherlink.com 1.10,2013-06-29 07:08:00,
2013-06-29 02:23:00,70.7,69.0,29.79,NNE,18,0.0,1.0,95,0.00,,,0.00,weatherlink.com 1.10,2013-06-29 07:23:00,
2013-06-29 02:38:00,70.9,70.0,29.79,South,174,2.0,2.0,95,0.00,,,0.00,weatherlink.com 1.10,2013-06-29 07:38:00,
2013-06-29 02:53:00,71.0,69.0,29.79,SSE,166,0.0,3.0,94,0.00,,,0.00,weatherlink.com 1.10,2013-06-29 07:53:00,
2013-06-29 03:08:00,70.9,69.0,29.78,SSE,166,0.0,1.0,94,0.00,,,0.00,weatherlink.com 1.10,2013-06-29 08:08:00,
2013-06-29 03:23:00,70.8,69.0,29.78,SSE,166,0.0,0.0,94,0.00,,,0.00,weatherlink.com 1.10,2013-06-29 08:23:00,
2013-06-29 03:38:00,70.7,69.0,29.78,SSE,166,0.0,0.0,94,0.00,,,0.00,weatherlink.com 1.10,2013-06-29 08:38:00,
2013-06-29 03:53:00,70.7,69.0,29.78,SSE,166,0.0,0.0,94,0.00,,,0.00,weatherlink.com 1.10,2013-06-29 08:53:00,
2013-06-29 04:08:00,70.8,69.0,29.78,SSE,166,0.0,0.0,94,0.00,,,0.00,weatherlink.com 1.10,2013-06-29 09:08:00,
2013-06-29 04:23:00,70.9,70.0,29.77,WSW,253,0.0,0.0,95,0.00,,,0.00,weatherlink.com 1.10,2013-06-29 09:23:00,
2013-06-29 04:38:00,71.1,70.0,29.76,WSW,253,0.0,1.0,95,0.00,,,0.00,weatherlink.com 1.10,2013-06-29 09:38:00,
2013-06-29 04:53:00,71.1,70.0,29.77,WSW,249,0.0,1.0,95,0.00,,,0.00,weatherlink.com 1.10,2013-06-29 09:53:00,
2013-06-29 05:08:00,71.6,70.0,29.77,SW,215,0.0,0.0,95,0.00,,,0.00,weatherlink.com 1.10,2013-06-29 10:08:00,
2013-06-29 05:23:00,71.8,71.0,29.76,SW,215,0.0,0.0,96,0.00,,,0.00,weatherlink.com 1.10,2013-06-29 10:23:00,
2013-06-29 05:38:00,72.0,71.0,29.77,SW,215,0.0,0.0,96,0.00,,,0.00,weatherlink.com 1.10,2013-06-29 10:38:00,
2013-06-29 05:53:00,72.2,71.0,29.78,SW,215,0.0,0.0,96,0.00,,,0.00,weatherlink.com 1.10,2013-06-29 10:53:00,
2013-06-29 06:08:00,72.4,71.0,29.78,SW,215,0.0,0.0,96,0.00,,,0.00,weatherlink.com 1.10,2013-06-29 11:08:00,
2013-06-29 06:23:00,72.7,72.0,29.78,SW,215,0.0,1.0,96,0.00,,,0.00,weatherlink.com 1.10,2013-06-29 11:23:00,
2013-06-29 06:38:00,73.3,72.0,29.78,SW,215,0.0,1.0,96,0.00,,,0.00,weatherlink.com 1.10,2013-06-29 11:38:00,
2013-06-29 06:53:00,73.6,72.0,29.78,SW,217,0.0,1.0,96,0.00,,,0.00,weatherlink.com 1.10,2013-06-29 11:53:00,
2013-06-29 07:08:00,73.9,73.0,29.79,South,188,0.0,2.0,96,0.00,,,0.00,weatherlink.com 1.10,2013-06-29 12:08:00,
2013-06-29 07:23:00,74.1,73.0,29.79,West,259,1.0,1.0,96,0.00,,,0.00,weatherlink.com 1.10,2013-06-29 12:23:00,
2013-06-29 07:38:00,74.3,73.0,29.78,West,265,0.0,3.0,95,0.00,,,0.00,weatherlink.com 1.10,2013-06-29 12:38:00,
2013-06-29 07:53:00,74.6,73.0,29.78,WNW,286,1.0,2.0,95,0.00,,,0.00,weatherlink.com 1.10,2013-06-29 12:53:00,
2013-06-29 08:08:00,75.0,73.0,29.80,South,174,1.0,2.0,94,0.00,,,0.00,weatherlink.com 1.10,2013-06-29 13:08:00,
2013-06-29 08:23:00,75.4,73.0,29.81,South,174,1.0,2.0,93,0.00,,,0.00,weatherlink.com 1.10,2013-06-29 13:23:00,
2013-06-29 08:38:00,75.7,73.0,29.81,SSE,165,1.0,2.0,92,0.00,,,0.00,weatherlink.com 1.10,2013-06-29 13:38:00,
2013-06-29 08:53:00,76.2,74.0,29.81,South,190,1.0,2.0,92,0.00,,,0.00,weatherlink.com 1.10,2013-06-29 13:53:00,
2013-06-29 09:08:00,76.5,74.0,29.80,SSW,207,2.0,3.0,90,0.00,,,0.00,weatherlink.com 1.10,2013-06-29 14:08:00,
2013-06-29 09:23:00,77.4,74.0,29.80,WNW,292,0.0,5.0,89,0.00,,,0.00,weatherlink.com 1.10,2013-06-29 14:23:00,
2013-06-29 09:39:00,78.8,75.0,29.80,West,262,1.0,4.0,87,0.00,,,0.00,weatherlink.com 1.10,2013-06-29 14:39:00,
2013-06-29 09:54:00,79.0,75.0,29.80,West,260,1.0,5.0,87,0.00,,,0.00,weatherlink.com 1.10,2013-06-29 14:54:00,
2013-06-29 10:09:00,80.0,76.0,29.80,WSW,253,2.0,4.0,87,0.00,,,0.00,weatherlink.com 1.10,2013-06-29 15:09:00,
2013-06-29 10:24:00,80.5,76.0,29.79,West,259,1.0,6.0,85,0.00,,,0.00,weatherlink.com 1.10,2013-06-29 15:24:00,
2013-06-29 10:39:00,81.7,77.0,29.79,SSE,158,3.0,4.0,84,0.00,,,0.00,weatherlink.com 1.10,2013-06-29 15:39:00,
2013-06-29 10:54:00,82.7,78.0,29.79,SSW,203,1.0,6.0,84,0.00,,,0.00,weatherlink.com 1.10,2013-06-29 15:54:00,
2013-06-29 11:09:00,83.0,77.0,29.79,SSW,213,1.0,3.0,83,0.00,,,0.00,weatherlink.com 1.10,2013-06-29 16:09:00,
2013-06-29 11:24:00,82.5,77.0,29.80,West,259,1.0,4.0,83,0.00,,,0.00,weatherlink.com 1.10,2013-06-29 16:24:00,
2013-06-29 11:40:00,82.3,77.0,29.79,WSW,249,0.0,5.0,84,0.00,,,0.00,weatherlink.com 1.10,2013-06-29 16:40:00,
2013-06-29 11:54:00,83.5,78.0,29.79,West,270,1.0,4.0,82,0.00,,,0.00,weatherlink.com 1.10,2013-06-29 16:54:00,
2013-06-29 12:09:00,85.3,79.0,29.78,WNW,283,2.0,4.0,81,0.00,,,0.00,weatherlink.com 1.10,2013-06-29 17:09:00,
2013-06-29 12:24:00,86.5,79.0,29.78,West,276,2.0,3.0,78,0.00,,,0.00,weatherlink.com 1.10,2013-06-29 17:24:00,
2013-06-29 12:39:00,87.1,79.0,29.77,WSW,255,1.0,3.0,76,0.00,,,0.00,weatherlink.com 1.10,2013-06-29 17:39:00,
2013-06-29 12:54:00,87.5,78.0,29.77,NW,315,2.0,4.0,74,0.00,,,0.00,weatherlink.com 1.10,2013-06-29 17:54:00,
2013-06-29 13:09:00,88.0,78.0,29.77,West,273,2.0,5.0,72,0.00,,,0.00,weatherlink.com 1.10,2013-06-29 18:09:00,
2013-06-29 13:24:00,87.9,79.0,29.76,WNW,288,3.0,7.0,75,0.00,,,0.00,weatherlink.com 1.10,2013-06-29 18:24:00,
2013-06-29 13:39:00,89.2,79.0,29.76,WSW,244,1.0,4.0,71,0.00,,,0.00,weatherlink.com 1.10,2013-06-29 18:39:00,
2013-06-29 13:54:00,89.4,78.0,29.75,West,277,0.0,4.0,70,0.00,,,0.00,weatherlink.com 1.10,2013-06-29 18:54:00,
2013-06-29 14:08:00,89.3,77.0,29.75,WSW,253,2.0,7.0,68,0.00,,,0.00,weatherlink.com 1.10,2013-06-29 19:08:00,
2013-06-29 14:23:00,87.7,78.0,29.74,South,177,1.0,6.0,73,0.00,,,0.00,weatherlink.com 1.10,2013-06-29 19:23:00,
2013-06-29 14:38:00,86.8,78.0,29.74,SSE,166,0.0,4.0,75,0.00,,,0.00,weatherlink.com 1.10,2013-06-29 19:38:00,
2013-06-29 14:53:00,85.7,78.0,29.73,SW,233,2.0,6.0,77,0.00,,,0.00,weatherlink.com 1.10,2013-06-29 19:53:00,
2013-06-29 15:09:00,84.2,76.0,29.73,WSW,241,2.0,10.0,77,0.00,,,0.00,weatherlink.com 1.10,2013-06-29 20:09:00,
2013-06-29 15:24:00,82.5,74.0,29.73,West,262,2.0,3.0,75,0.00,,,0.00,weatherlink.com 1.10,2013-06-29 20:24:00,
2013-06-29 15:39:00,81.9,71.0,29.72,SW,219,1.0,3.0,70,0.00,,,0.00,weatherlink.com 1.10,2013-06-29 20:39:00,
2013-06-29 15:54:00,83.6,72.0,29.70,West,259,2.0,3.0,68,0.00,,,0.00,weatherlink.com 1.10,2013-06-29 20:54:00,
2013-06-29 16:09:00,84.4,73.0,29.70,West,277,1.0,5.0,68,0.00,,,0.00,weatherlink.com 1.10,2013-06-29 21:09:00,
2013-06-29 16:24:00,83.5,72.0,29.71,West,266,1.0,6.0,69,0.00,,,0.00,weatherlink.com 1.10,2013-06-29 21:24:00,
2013-06-29 16:39:00,80.5,67.0,29.73,SSE,167,4.0,12.0,64,0.00,,,0.00,weatherlink.com 1.10,2013-06-29 21:39:00,
2013-06-29 16:54:00,76.4,67.0,29.71,SSE,162,0.0,7.0,73,0.00,,,0.00,weatherlink.com 1.10,2013-06-29 21:54:00,
2013-06-29 17:09:00,75.9,69.0,29.72,West,266,0.0,2.0,78,0.00,,,0.00,weatherlink.com 1.10,2013-06-29 22:09:00,
2013-06-29 17:24:00,76.1,69.0,29.73,West,266,0.0,4.0,79,0.00,,,0.00,weatherlink.com 1.10,2013-06-29 22:24:00,
2013-06-29 17:39:00,74.9,69.0,29.72,SSW,200,1.0,3.0,82,0.00,,,0.00,weatherlink.com 1.10,2013-06-29 22:39:00,
2013-06-29 17:54:00,74.5,71.0,29.71,WSW,255,0.0,3.0,87,0.00,,,0.00,weatherlink.com 1.10,2013-06-29 22:54:00,
2013-06-29 18:09:00,74.8,71.0,29.71,SSW,208,1.0,2.0,88,0.00,,,0.00,weatherlink.com 1.10,2013-06-29 23:09:00,
2013-06-29 18:24:00,75.3,71.0,29.71,South,177,0.0,2.0,87,0.00,,,0.00,weatherlink.com 1.10,2013-06-29 23:24:00,
2013-06-29 18:39:00,75.9,71.0,29.72,West,274,1.0,3.0,84,0.00,,,0.00,weatherlink.com 1.10,2013-06-29 23:39:00,
2013-06-29 18:54:00,76.0,71.0,29.71,SW,221,3.0,4.0,84,0.00,,,0.00,weatherlink.com 1.10,2013-06-29 23:54:00,
2013-06-29 19:09:00,76.1,71.0,29.71,WSW,253,1.0,2.0,85,0.00,,,0.00,weatherlink.com 1.10,2013-06-30 00:09:00,
2013-06-29 19:24:00,76.6,72.0,29.72,WSW,246,1.0,2.0,85,0.00,,,0.00,weatherlink.com 1.10,2013-06-30 00:24:00,
2013-06-29 19:39:00,77.0,72.0,29.73,WNW,292,0.0,2.0,84,0.00,,,0.00,weatherlink.com 1.10,2013-06-30 00:39:00,
2013-06-29 19:54:00,76.8,72.0,29.73,WSW,239,0.0,1.0,85,0.00,,,0.00,weatherlink.com 1.10,2013-06-30 00:54:00,
2013-06-29 20:09:00,76.3,72.0,29.74,WNW,285,0.0,1.0,86,0.00,,,0.00,weatherlink.com 1.10,2013-06-30 01:09:00,
2013-06-29 20:24:00,75.7,72.0,29.74,WNW,285,0.0,1.0,87,0.00,,,0.00,weatherlink.com 1.10,2013-06-30 01:24:00,
2013-06-29 20:39:00,75.2,72.0,29.74,WNW,285,0.0,1.0,89,0.00,,,0.00,weatherlink.com 1.10,2013-06-30 01:39:00,
2013-06-29 20:54:00,74.6,72.0,29.74,WNW,285,0.0,0.0,90,0.00,,,0.00,weatherlink.com 1.10,2013-06-30 01:54:00,
2013-06-29 21:09:00,74.2,72.0,29.75,WNW,284,0.0,0.0,91,0.00,,,0.00,weatherlink.com 1.10,2013-06-30 02:09:00,
2013-06-29 21:24:00,73.8,71.0,29.75,WNW,285,0.0,0.0,92,0.00,,,0.00,weatherlink.com 1.10,2013-06-30 02:24:00,
2013-06-29 21:39:00,73.5,71.0,29.75,WNW,284,0.0,0.0,92,0.00,,,0.00,weatherlink.com 1.10,2013-06-30 02:39:00,
2013-06-29 21:54:00,73.3,71.0,29.75,WNW,284,0.0,0.0,93,0.00,,,0.00,weatherlink.com 1.10,2013-06-30 02:54:00,
2013-06-29 22:09:00,73.0,71.0,29.76,WNW,285,0.0,0.0,93,0.00,,,0.00,weatherlink.com 1.10,2013-06-30 03:09:00,
2013-06-29 22:24:00,72.8,71.0,29.77,WNW,284,0.0,0.0,94,0.00,,,0.00,weatherlink.com 1.10,2013-06-30 03:24:00,
2013-06-29 22:39:00,72.5,71.0,29.77,WNW,284,0.0,0.0,94,0.00,,,0.00,weatherlink.com 1.10,2013-06-30 03:39:00,
2013-06-29 22:54:00,72.3,71.0,29.77,WNW,285,0.0,0.0,94,0.00,,,0.00,weatherlink.com 1.10,2013-06-30 03:54:00,
2013-06-29 23:09:00,72.1,70.0,29.77,WNW,284,0.0,0.0,94,0.00,,,0.00,weatherlink.com 1.10,2013-06-30 04:09:00,
2013-06-29 23:24:00,71.8,70.0,29.77,WNW,285,0.0,0.0,94,0.00,,,0.00,weatherlink.com 1.10,2013-06-30 04:24:00,
2013-06-29 23:39:00,71.6,70.0,29.77,WNW,286,0.0,0.0,95,0.00,,,0.00,weatherlink.com 1.10,2013-06-30 04:39:00,
2013-06-29 23:54:00,71.4,70.0,29.77,WNW,285,0.0,0.0,95,0.00,,,0.00,weatherlink.com 1.10,2013-06-30 04:54:00,